sensor_id;sensor_type;location;lat;lon;timestamp;P1;durP1;ratioP1;P2;durP2;ratioP2
38629;SDS011;24384;51.988;4.644;2024-02-15T00:01:05;10.05;;;4.13;;
38629;SDS011;24384;51.988;4.644;2024-02-15T00:03:31;12.02;;;4.13;;
38629;SDS011;24384;51.988;4.644;2024-02-15T00:05:57;10.60;;;3.60;;
38629;SDS011;24384;51.988;4.644;2024-02-15T00:08:22;16.83;;;4.90;;
38629;SDS011;24384;51.988;4.644;2024-02-15T00:10:49;9.55;;;3.67;;
38629;SDS011;24384;51.988;4.644;2024-02-15T00:13:15;14.93;;;4.10;;
38629;SDS011;24384;51.988;4.644;2024-02-15T00:15:40;12.65;;;4.93;;
38629;SDS011;24384;51.988;4.644;2024-02-15T00:18:08;16.55;;;4.50;;
38629;SDS011;24384;51.988;4.644;2024-02-15T00:20:33;19.50;;;5.45;;
38629;SDS011;24384;51.988;4.644;2024-02-15T00:22:59;11.70;;;5.32;;
38629;SDS011;24384;51.988;4.644;2024-02-15T00:25:25;14.05;;;5.88;;
38629;SDS011;24384;51.988;4.644;2024-02-15T00:27:51;12.95;;;5.53;;
38629;SDS011;24384;51.988;4.644;2024-02-15T00:30:16;17.90;;;6.13;;
38629;SDS011;24384;51.988;4.644;2024-02-15T00:32:41;12.00;;;5.03;;
38629;SDS011;24384;51.988;4.644;2024-02-15T00:35:09;12.80;;;6.20;;
38629;SDS011;24384;51.988;4.644;2024-02-15T00:37:37;19.10;;;6.65;;
38629;SDS011;24384;51.988;4.644;2024-02-15T00:40:03;11.80;;;4.60;;
38629;SDS011;24384;51.988;4.644;2024-02-15T00:42:29;19.77;;;5.93;;
38629;SDS011;24384;51.988;4.644;2024-02-15T00:44:56;14.10;;;5.22;;
38629;SDS011;24384;51.988;4.644;2024-02-15T00:47:22;13.20;;;5.13;;
38629;SDS011;24384;51.988;4.644;2024-02-15T00:49:47;16.23;;;6.03;;
38629;SDS011;24384;51.988;4.644;2024-02-15T00:52:15;19.27;;;6.72;;
38629;SDS011;24384;51.988;4.644;2024-02-15T00:54:40;13.90;;;6.30;;
38629;SDS011;24384;51.988;4.644;2024-02-15T00:57:06;14.85;;;7.57;;
38629;SDS011;24384;51.988;4.644;2024-02-15T00:59:31;14.52;;;6.03;;
38629;SDS011;24384;51.988;4.644;2024-02-15T01:02:01;17.75;;;7.18;;
38629;SDS011;24384;51.988;4.644;2024-02-15T01:04:27;21.85;;;6.50;;
38629;SDS011;24384;51.988;4.644;2024-02-15T01:06:52;18.35;;;6.55;;
38629;SDS011;24384;51.988;4.644;2024-02-15T01:09:18;15.65;;;7.50;;
38629;SDS011;24384;51.988;4.644;2024-02-15T01:11:46;12.73;;;8.27;;
38629;SDS011;24384;51.988;4.644;2024-02-15T01:14:11;17.85;;;7.47;;
38629;SDS011;24384;51.988;4.644;2024-02-15T01:16:36;15.18;;;6.80;;
38629;SDS011;24384;51.988;4.644;2024-02-15T01:19:02;20.60;;;7.40;;
38629;SDS011;24384;51.988;4.644;2024-02-15T01:21:27;15.57;;;6.63;;
38629;SDS011;24384;51.988;4.644;2024-02-15T01:23:53;16.65;;;6.88;;
38629;SDS011;24384;51.988;4.644;2024-02-15T01:26:21;14.55;;;8.27;;
38629;SDS011;24384;51.988;4.644;2024-02-15T01:28:48;14.40;;;6.40;;
38629;SDS011;24384;51.988;4.644;2024-02-15T01:31:14;16.75;;;6.15;;
38629;SDS011;24384;51.988;4.644;2024-02-15T01:33:41;17.63;;;6.97;;
38629;SDS011;24384;51.988;4.644;2024-02-15T01:36:07;14.73;;;6.57;;
38629;SDS011;24384;51.988;4.644;2024-02-15T01:38:33;19.50;;;7.40;;
38629;SDS011;24384;51.988;4.644;2024-02-15T01:40:58;18.08;;;6.53;;
38629;SDS011;24384;51.988;4.644;2024-02-15T01:43:23;10.88;;;6.38;;
38629;SDS011;24384;51.988;4.644;2024-02-15T01:45:48;16.30;;;7.15;;
38629;SDS011;24384;51.988;4.644;2024-02-15T01:48:16;16.08;;;6.80;;
38629;SDS011;24384;51.988;4.644;2024-02-15T01:50:44;15.07;;;6.47;;
38629;SDS011;24384;51.988;4.644;2024-02-15T01:53:09;18.40;;;6.75;;
38629;SDS011;24384;51.988;4.644;2024-02-15T01:55:37;15.18;;;6.50;;
38629;SDS011;24384;51.988;4.644;2024-02-15T01:58:03;19.48;;;7.72;;
38629;SDS011;24384;51.988;4.644;2024-02-15T02:00:28;21.23;;;7.32;;
38629;SDS011;24384;51.988;4.644;2024-02-15T02:02:55;17.35;;;6.50;;
38629;SDS011;24384;51.988;4.644;2024-02-15T02:05:25;18.10;;;6.72;;
38629;SDS011;24384;51.988;4.644;2024-02-15T02:07:55;23.08;;;9.10;;
38629;SDS011;24384;51.988;4.644;2024-02-15T02:10:24;30.65;;;8.70;;
38629;SDS011;24384;51.988;4.644;2024-02-15T02:12:52;14.75;;;5.80;;
38629;SDS011;24384;51.988;4.644;2024-02-15T02:15:18;19.00;;;7.20;;
38629;SDS011;24384;51.988;4.644;2024-02-15T02:17:47;14.63;;;6.22;;
38629;SDS011;24384;51.988;4.644;2024-02-15T02:20:16;13.60;;;6.45;;
38629;SDS011;24384;51.988;4.644;2024-02-15T02:22:41;15.30;;;6.75;;
38629;SDS011;24384;51.988;4.644;2024-02-15T02:25:11;19.50;;;6.38;;
38629;SDS011;24384;51.988;4.644;2024-02-15T02:27:38;16.70;;;5.70;;
38629;SDS011;24384;51.988;4.644;2024-02-15T02:30:13;15.27;;;7.75;;
38629;SDS011;24384;51.988;4.644;2024-02-15T02:32:42;17.15;;;6.63;;
38629;SDS011;24384;51.988;4.644;2024-02-15T02:35:07;13.55;;;5.63;;
38629;SDS011;24384;51.988;4.644;2024-02-15T02:37:36;18.52;;;6.20;;
38629;SDS011;24384;51.988;4.644;2024-02-15T02:40:04;13.60;;;6.30;;
38629;SDS011;24384;51.988;4.644;2024-02-15T02:42:34;22.02;;;5.75;;
38629;SDS011;24384;51.988;4.644;2024-02-15T02:45:17;14.43;;;5.95;;
38629;SDS011;24384;51.988;4.644;2024-02-15T02:47:44;15.32;;;5.57;;
38629;SDS011;24384;51.988;4.644;2024-02-15T02:50:16;15.57;;;5.93;;
38629;SDS011;24384;51.988;4.644;2024-02-15T02:52:43;20.38;;;7.03;;
38629;SDS011;24384;51.988;4.644;2024-02-15T02:55:09;16.85;;;5.63;;
38629;SDS011;24384;51.988;4.644;2024-02-15T02:57:35;12.75;;;5.03;;
38629;SDS011;24384;51.988;4.644;2024-02-15T03:00:07;12.73;;;5.30;;
38629;SDS011;24384;51.988;4.644;2024-02-15T03:02:42;17.38;;;5.28;;
38629;SDS011;24384;51.988;4.644;2024-02-15T03:05:11;17.42;;;6.90;;
38629;SDS011;24384;51.988;4.644;2024-02-15T03:07:37;18.67;;;5.40;;
38629;SDS011;24384;51.988;4.644;2024-02-15T03:10:06;16.73;;;5.75;;
38629;SDS011;24384;51.988;4.644;2024-02-15T03:12:36;16.83;;;4.93;;
38629;SDS011;24384;51.988;4.644;2024-02-15T03:15:04;12.00;;;4.90;;
38629;SDS011;24384;51.988;4.644;2024-02-15T03:17:36;19.83;;;4.30;;
38629;SDS011;24384;51.988;4.644;2024-02-15T03:20:03;14.77;;;4.90;;
38629;SDS011;24384;51.988;4.644;2024-02-15T03:22:55;10.18;;;4.45;;
38629;SDS011;24384;51.988;4.644;2024-02-15T03:25:22;15.63;;;5.03;;
38629;SDS011;24384;51.988;4.644;2024-02-15T03:27:49;14.40;;;5.30;;
38629;SDS011;24384;51.988;4.644;2024-02-15T03:30:18;11.27;;;4.85;;
38629;SDS011;24384;51.988;4.644;2024-02-15T03:32:45;14.98;;;5.88;;
38629;SDS011;24384;51.988;4.644;2024-02-15T03:35:13;16.98;;;6.13;;
38629;SDS011;24384;51.988;4.644;2024-02-15T03:37:40;19.33;;;7.03;;
38629;SDS011;24384;51.988;4.644;2024-02-15T03:40:06;19.83;;;6.43;;
38629;SDS011;24384;51.988;4.644;2024-02-15T03:42:33;25.13;;;7.00;;
38629;SDS011;24384;51.988;4.644;2024-02-15T03:45:02;18.65;;;6.65;;
38629;SDS011;24384;51.988;4.644;2024-02-15T03:47:28;28.98;;;7.88;;
38629;SDS011;24384;51.988;4.644;2024-02-15T03:49:54;29.10;;;7.43;;
38629;SDS011;24384;51.988;4.644;2024-02-15T03:52:20;19.88;;;8.02;;
38629;SDS011;24384;51.988;4.644;2024-02-15T03:54:47;18.92;;;7.20;;
38629;SDS011;24384;51.988;4.644;2024-02-15T03:57:12;15.15;;;7.95;;
38629;SDS011;24384;51.988;4.644;2024-02-15T03:59:38;15.50;;;7.80;;
38629;SDS011;24384;51.988;4.644;2024-02-15T04:02:05;18.73;;;7.35;;
38629;SDS011;24384;51.988;4.644;2024-02-15T04:04:33;19.88;;;8.57;;
38629;SDS011;24384;51.988;4.644;2024-02-15T04:06:59;18.58;;;7.97;;
38629;SDS011;24384;51.988;4.644;2024-02-15T04:09:24;13.68;;;7.57;;
38629;SDS011;24384;51.988;4.644;2024-02-15T04:11:50;14.95;;;7.60;;
38629;SDS011;24384;51.988;4.644;2024-02-15T04:14:18;19.83;;;8.30;;
38629;SDS011;24384;51.988;4.644;2024-02-15T04:16:43;13.70;;;9.35;;
38629;SDS011;24384;51.988;4.644;2024-02-15T04:19:10;16.85;;;8.55;;
38629;SDS011;24384;51.988;4.644;2024-02-15T04:21:35;17.73;;;8.93;;
38629;SDS011;24384;51.988;4.644;2024-02-15T04:24:01;18.10;;;8.88;;
38629;SDS011;24384;51.988;4.644;2024-02-15T04:26:27;18.40;;;10.25;;
38629;SDS011;24384;51.988;4.644;2024-02-15T04:28:55;15.93;;;8.95;;
38629;SDS011;24384;51.988;4.644;2024-02-15T04:31:23;28.85;;;10.18;;
38629;SDS011;24384;51.988;4.644;2024-02-15T04:33:51;18.15;;;8.93;;
38629;SDS011;24384;51.988;4.644;2024-02-15T04:36:18;18.75;;;9.30;;
38629;SDS011;24384;51.988;4.644;2024-02-15T04:38:48;22.08;;;9.65;;
38629;SDS011;24384;51.988;4.644;2024-02-15T04:41:15;17.13;;;9.50;;
38629;SDS011;24384;51.988;4.644;2024-02-15T04:43:44;18.95;;;10.15;;
38629;SDS011;24384;51.988;4.644;2024-02-15T04:46:11;23.73;;;10.27;;
38629;SDS011;24384;51.988;4.644;2024-02-15T04:48:38;18.92;;;11.27;;
38629;SDS011;24384;51.988;4.644;2024-02-15T04:51:04;21.35;;;11.55;;
38629;SDS011;24384;51.988;4.644;2024-02-15T04:53:30;24.13;;;11.77;;
38629;SDS011;24384;51.988;4.644;2024-02-15T04:55:57;22.88;;;12.52;;
38629;SDS011;24384;51.988;4.644;2024-02-15T04:58:25;25.88;;;14.68;;
38629;SDS011;24384;51.988;4.644;2024-02-15T05:00:52;29.25;;;13.68;;
38629;SDS011;24384;51.988;4.644;2024-02-15T05:03:18;24.58;;;15.48;;
38629;SDS011;24384;51.988;4.644;2024-02-15T05:05:44;23.00;;;15.50;;
38629;SDS011;24384;51.988;4.644;2024-02-15T05:08:09;30.08;;;14.98;;
38629;SDS011;24384;51.988;4.644;2024-02-15T05:10:34;27.67;;;13.77;;
38629;SDS011;24384;51.988;4.644;2024-02-15T05:13:00;27.33;;;13.00;;
38629;SDS011;24384;51.988;4.644;2024-02-15T05:15:26;25.48;;;14.07;;
38629;SDS011;24384;51.988;4.644;2024-02-15T05:17:51;29.13;;;14.10;;
38629;SDS011;24384;51.988;4.644;2024-02-15T05:20:17;23.02;;;13.45;;
38629;SDS011;24384;51.988;4.644;2024-02-15T05:22:45;24.77;;;13.98;;
38629;SDS011;24384;51.988;4.644;2024-02-15T05:25:13;33.35;;;13.48;;
38629;SDS011;24384;51.988;4.644;2024-02-15T05:27:40;25.80;;;14.48;;
38629;SDS011;24384;51.988;4.644;2024-02-15T05:30:07;26.70;;;14.27;;
38629;SDS011;24384;51.988;4.644;2024-02-15T05:32:33;29.52;;;13.98;;
38629;SDS011;24384;51.988;4.644;2024-02-15T05:35:06;25.48;;;14.57;;
38629;SDS011;24384;51.988;4.644;2024-02-15T05:37:33;29.17;;;16.15;;
38629;SDS011;24384;51.988;4.644;2024-02-15T05:39:59;26.17;;;14.48;;
38629;SDS011;24384;51.988;4.644;2024-02-15T05:42:25;25.52;;;14.07;;
38629;SDS011;24384;51.988;4.644;2024-02-15T05:44:52;26.80;;;14.38;;
38629;SDS011;24384;51.988;4.644;2024-02-15T05:47:17;30.88;;;14.80;;
38629;SDS011;24384;51.988;4.644;2024-02-15T05:49:42;28.45;;;17.35;;
38629;SDS011;24384;51.988;4.644;2024-02-15T05:52:08;28.50;;;15.52;;
38629;SDS011;24384;51.988;4.644;2024-02-15T05:54:33;21.33;;;14.57;;
38629;SDS011;24384;51.988;4.644;2024-02-15T05:57:00;30.88;;;17.17;;
38629;SDS011;24384;51.988;4.644;2024-02-15T05:59:26;29.63;;;15.88;;
38629;SDS011;24384;51.988;4.644;2024-02-15T06:01:51;23.70;;;15.25;;
38629;SDS011;24384;51.988;4.644;2024-02-15T06:04:17;28.48;;;15.38;;
38629;SDS011;24384;51.988;4.644;2024-02-15T06:06:43;25.10;;;15.60;;
38629;SDS011;24384;51.988;4.644;2024-02-15T06:09:08;21.65;;;13.60;;
38629;SDS011;24384;51.988;4.644;2024-02-15T06:11:34;21.20;;;14.30;;
38629;SDS011;24384;51.988;4.644;2024-02-15T06:13:59;20.00;;;13.75;;
38629;SDS011;24384;51.988;4.644;2024-02-15T06:16:24;19.42;;;12.63;;
38629;SDS011;24384;51.988;4.644;2024-02-15T06:18:50;19.40;;;12.00;;
38629;SDS011;24384;51.988;4.644;2024-02-15T06:21:15;19.73;;;11.40;;
38629;SDS011;24384;51.988;4.644;2024-02-15T06:23:41;19.85;;;11.63;;
38629;SDS011;24384;51.988;4.644;2024-02-15T06:26:06;14.27;;;9.30;;
38629;SDS011;24384;51.988;4.644;2024-02-15T06:28:32;18.00;;;10.43;;
38629;SDS011;24384;51.988;4.644;2024-02-15T06:31:16;18.67;;;9.70;;
38629;SDS011;24384;51.988;4.644;2024-02-15T06:34:00;12.63;;;9.20;;
38629;SDS011;24384;51.988;4.644;2024-02-15T06:36:47;16.02;;;9.57;;
38629;SDS011;24384;51.988;4.644;2024-02-15T06:39:32;15.25;;;9.68;;
38629;SDS011;24384;51.988;4.644;2024-02-15T06:42:07;11.70;;;8.93;;
38629;SDS011;24384;51.988;4.644;2024-02-15T06:44:33;15.30;;;9.60;;
38629;SDS011;24384;51.988;4.644;2024-02-15T06:46:58;17.92;;;10.57;;
38629;SDS011;24384;51.988;4.644;2024-02-15T06:49:24;15.95;;;10.88;;
38629;SDS011;24384;51.988;4.644;2024-02-15T06:51:50;14.52;;;9.98;;
38629;SDS011;24384;51.988;4.644;2024-02-15T06:54:16;13.25;;;10.27;;
38629;SDS011;24384;51.988;4.644;2024-02-15T06:56:43;21.17;;;10.45;;
38629;SDS011;24384;51.988;4.644;2024-02-15T06:59:10;18.15;;;11.30;;
38629;SDS011;24384;51.988;4.644;2024-02-15T07:01:38;17.67;;;11.38;;
38629;SDS011;24384;51.988;4.644;2024-02-15T07:04:04;16.52;;;10.63;;
38629;SDS011;24384;51.988;4.644;2024-02-15T07:06:29;25.73;;;12.10;;
38629;SDS011;24384;51.988;4.644;2024-02-15T07:08:56;19.83;;;11.07;;
38629;SDS011;24384;51.988;4.644;2024-02-15T07:11:22;19.17;;;12.93;;
38629;SDS011;24384;51.988;4.644;2024-02-15T07:13:48;19.83;;;11.10;;
38629;SDS011;24384;51.988;4.644;2024-02-15T07:16:13;24.33;;;13.32;;
38629;SDS011;24384;51.988;4.644;2024-02-15T07:18:40;19.60;;;12.35;;
38629;SDS011;24384;51.988;4.644;2024-02-15T07:21:06;16.80;;;11.98;;
38629;SDS011;24384;51.988;4.644;2024-02-15T07:23:36;22.33;;;11.38;;
38629;SDS011;24384;51.988;4.644;2024-02-15T07:26:01;18.45;;;11.98;;
38629;SDS011;24384;51.988;4.644;2024-02-15T07:28:28;27.27;;;11.95;;
38629;SDS011;24384;51.988;4.644;2024-02-15T07:30:55;17.95;;;12.90;;
38629;SDS011;24384;51.988;4.644;2024-02-15T07:33:21;22.42;;;12.95;;
38629;SDS011;24384;51.988;4.644;2024-02-15T07:35:47;23.52;;;14.10;;
38629;SDS011;24384;51.988;4.644;2024-02-15T07:38:15;21.02;;;13.00;;
38629;SDS011;24384;51.988;4.644;2024-02-15T07:40:41;24.05;;;13.65;;
38629;SDS011;24384;51.988;4.644;2024-02-15T07:43:06;26.35;;;14.70;;
38629;SDS011;24384;51.988;4.644;2024-02-15T07:45:32;26.52;;;14.75;;
38629;SDS011;24384;51.988;4.644;2024-02-15T07:48:00;28.13;;;14.85;;
38629;SDS011;24384;51.988;4.644;2024-02-15T07:50:26;29.92;;;15.45;;
38629;SDS011;24384;51.988;4.644;2024-02-15T07:52:51;32.67;;;15.73;;
38629;SDS011;24384;51.988;4.644;2024-02-15T07:55:17;30.77;;;16.50;;
38629;SDS011;24384;51.988;4.644;2024-02-15T07:57:42;29.58;;;16.20;;
38629;SDS011;24384;51.988;4.644;2024-02-15T08:00:07;27.90;;;13.82;;
38629;SDS011;24384;51.988;4.644;2024-02-15T08:02:38;27.42;;;14.40;;
38629;SDS011;24384;51.988;4.644;2024-02-15T08:05:06;28.42;;;14.30;;
38629;SDS011;24384;51.988;4.644;2024-02-15T08:07:35;25.45;;;14.63;;
38629;SDS011;24384;51.988;4.644;2024-02-15T08:10:07;21.08;;;13.07;;
38629;SDS011;24384;51.988;4.644;2024-02-15T08:12:39;24.65;;;13.98;;
38629;SDS011;24384;51.988;4.644;2024-02-15T08:15:07;22.25;;;13.52;;
38629;SDS011;24384;51.988;4.644;2024-02-15T08:20:11;20.77;;;12.30;;
38629;SDS011;24384;51.988;4.644;2024-02-15T08:22:38;20.98;;;12.55;;
38629;SDS011;24384;51.988;4.644;2024-02-15T08:25:08;21.98;;;11.18;;
38629;SDS011;24384;51.988;4.644;2024-02-15T08:27:40;18.20;;;11.52;;
38629;SDS011;24384;51.988;4.644;2024-02-15T08:30:09;19.60;;;9.57;;
38629;SDS011;24384;51.988;4.644;2024-02-15T08:32:35;19.48;;;11.02;;
38629;SDS011;24384;51.988;4.644;2024-02-15T08:35:01;21.23;;;10.75;;
38629;SDS011;24384;51.988;4.644;2024-02-15T08:37:29;18.90;;;10.45;;
38629;SDS011;24384;51.988;4.644;2024-02-15T08:39:55;16.25;;;10.48;;
38629;SDS011;24384;51.988;4.644;2024-02-15T08:42:22;21.60;;;12.15;;
38629;SDS011;24384;51.988;4.644;2024-02-15T08:44:50;21.00;;;12.60;;
38629;SDS011;24384;51.988;4.644;2024-02-15T08:47:16;21.88;;;11.82;;
38629;SDS011;24384;51.988;4.644;2024-02-15T08:49:41;20.80;;;11.85;;
38629;SDS011;24384;51.988;4.644;2024-02-15T08:52:07;23.08;;;12.07;;
38629;SDS011;24384;51.988;4.644;2024-02-15T08:54:35;21.25;;;11.65;;
38629;SDS011;24384;51.988;4.644;2024-02-15T08:57:03;23.30;;;11.88;;
38629;SDS011;24384;51.988;4.644;2024-02-15T08:59:29;17.77;;;9.73;;
38629;SDS011;24384;51.988;4.644;2024-02-15T09:01:55;23.77;;;10.52;;
38629;SDS011;24384;51.988;4.644;2024-02-15T09:04:21;17.75;;;9.07;;
38629;SDS011;24384;51.988;4.644;2024-02-15T09:06:50;14.45;;;7.80;;
38629;SDS011;24384;51.988;4.644;2024-02-15T09:09:16;17.88;;;7.70;;
38629;SDS011;24384;51.988;4.644;2024-02-15T09:11:41;20.45;;;7.75;;
38629;SDS011;24384;51.988;4.644;2024-02-15T09:14:07;16.27;;;6.95;;
38629;SDS011;24384;51.988;4.644;2024-02-15T09:16:35;12.70;;;6.07;;
38629;SDS011;24384;51.988;4.644;2024-02-15T09:19:00;14.40;;;5.90;;
38629;SDS011;24384;51.988;4.644;2024-02-15T09:21:26;17.90;;;6.20;;
38629;SDS011;24384;51.988;4.644;2024-02-15T09:23:54;19.45;;;5.95;;
38629;SDS011;24384;51.988;4.644;2024-02-15T09:26:19;15.20;;;6.35;;
38629;SDS011;24384;51.988;4.644;2024-02-15T09:28:45;13.52;;;5.78;;
38629;SDS011;24384;51.988;4.644;2024-02-15T09:31:14;13.30;;;5.00;;
38629;SDS011;24384;51.988;4.644;2024-02-15T09:33:39;14.82;;;5.13;;
38629;SDS011;24384;51.988;4.644;2024-02-15T09:36:05;16.65;;;4.63;;
38629;SDS011;24384;51.988;4.644;2024-02-15T09:38:33;16.13;;;4.85;;
38629;SDS011;24384;51.988;4.644;2024-02-15T09:40:58;14.00;;;5.35;;
38629;SDS011;24384;51.988;4.644;2024-02-15T09:43:24;15.65;;;5.10;;
38629;SDS011;24384;51.988;4.644;2024-02-15T09:45:54;16.40;;;5.80;;
38629;SDS011;24384;51.988;4.644;2024-02-15T09:48:20;14.57;;;5.57;;
38629;SDS011;24384;51.988;4.644;2024-02-15T09:50:50;12.45;;;4.75;;
38629;SDS011;24384;51.988;4.644;2024-02-15T09:53:22;16.05;;;5.20;;
38629;SDS011;24384;51.988;4.644;2024-02-15T09:55:52;12.32;;;4.82;;
38629;SDS011;24384;51.988;4.644;2024-02-15T09:58:19;13.18;;;4.53;;
38629;SDS011;24384;51.988;4.644;2024-02-15T10:00:44;11.15;;;4.55;;
38629;SDS011;24384;51.988;4.644;2024-02-15T10:03:16;14.77;;;6.30;;
38629;SDS011;24384;51.988;4.644;2024-02-15T10:05:43;8.57;;;4.07;;
38629;SDS011;24384;51.988;4.644;2024-02-15T10:08:09;13.07;;;6.03;;
38629;SDS011;24384;51.988;4.644;2024-02-15T10:10:36;8.73;;;4.38;;
38629;SDS011;24384;51.988;4.644;2024-02-15T10:13:01;11.63;;;4.60;;
38629;SDS011;24384;51.988;4.644;2024-02-15T10:17:54;13.10;;;5.40;;
38629;SDS011;24384;51.988;4.644;2024-02-15T10:20:20;14.02;;;4.40;;
38629;SDS011;24384;51.988;4.644;2024-02-15T10:22:46;12.05;;;5.18;;
38629;SDS011;24384;51.988;4.644;2024-02-15T10:25:13;15.40;;;5.05;;
38629;SDS011;24384;51.988;4.644;2024-02-15T10:27:42;11.75;;;4.80;;
38629;SDS011;24384;51.988;4.644;2024-02-15T10:30:19;13.88;;;5.38;;
38629;SDS011;24384;51.988;4.644;2024-02-15T10:32:46;15.82;;;5.30;;
38629;SDS011;24384;51.988;4.644;2024-02-15T10:35:22;11.00;;;5.10;;
38629;SDS011;24384;51.988;4.644;2024-02-15T10:40:22;14.43;;;5.40;;
38629;SDS011;24384;51.988;4.644;2024-02-15T10:42:48;8.73;;;4.70;;
38629;SDS011;24384;51.988;4.644;2024-02-15T10:45:21;10.00;;;4.93;;
38629;SDS011;24384;51.988;4.644;2024-02-15T10:47:47;9.48;;;5.25;;
38629;SDS011;24384;51.988;4.644;2024-02-15T10:50:15;8.90;;;4.57;;
38629;SDS011;24384;51.988;4.644;2024-02-15T10:52:59;11.15;;;5.95;;
38629;SDS011;24384;51.988;4.644;2024-02-15T10:55:26;9.88;;;4.60;;
38629;SDS011;24384;51.988;4.644;2024-02-15T10:58:01;9.85;;;4.00;;
38629;SDS011;24384;51.988;4.644;2024-02-15T11:00:30;10.70;;;4.38;;
38629;SDS011;24384;51.988;4.644;2024-02-15T11:03:01;6.47;;;4.00;;
38629;SDS011;24384;51.988;4.644;2024-02-15T11:05:31;12.18;;;4.60;;
38629;SDS011;24384;51.988;4.644;2024-02-15T11:07:59;14.82;;;4.40;;
38629;SDS011;24384;51.988;4.644;2024-02-15T11:10:29;5.90;;;3.85;;
38629;SDS011;24384;51.988;4.644;2024-02-15T11:12:57;10.10;;;4.28;;
38629;SDS011;24384;51.988;4.644;2024-02-15T11:21:10;9.10;;;3.63;;
38629;SDS011;24384;51.988;4.644;2024-02-15T11:23:36;13.32;;;5.03;;
38629;SDS011;24384;51.988;4.644;2024-02-15T11:26:01;9.52;;;4.50;;
38629;SDS011;24384;51.988;4.644;2024-02-15T11:31:01;8.00;;;4.38;;
38629;SDS011;24384;51.988;4.644;2024-02-15T11:36:07;11.90;;;4.85;;
38629;SDS011;24384;51.988;4.644;2024-02-15T11:38:34;7.63;;;3.80;;
38629;SDS011;24384;51.988;4.644;2024-02-15T11:41:04;10.35;;;3.20;;
38629;SDS011;24384;51.988;4.644;2024-02-15T11:46:12;8.18;;;3.03;;
38629;SDS011;24384;51.988;4.644;2024-02-15T11:48:38;8.48;;;3.25;;
38629;SDS011;24384;51.988;4.644;2024-02-15T11:51:04;6.47;;;2.80;;
38629;SDS011;24384;51.988;4.644;2024-02-15T11:53:31;10.70;;;2.80;;
38629;SDS011;24384;51.988;4.644;2024-02-15T11:55:59;8.20;;;2.35;;
38629;SDS011;24384;51.988;4.644;2024-02-15T11:58:25;8.23;;;2.63;;
38629;SDS011;24384;51.988;4.644;2024-02-15T12:00:59;9.68;;;3.22;;
38629;SDS011;24384;51.988;4.644;2024-02-15T12:03:43;6.40;;;3.03;;
38629;SDS011;24384;51.988;4.644;2024-02-15T12:06:27;9.75;;;3.13;;
38629;SDS011;24384;51.988;4.644;2024-02-15T12:09:12;10.50;;;3.22;;
38629;SDS011;24384;51.988;4.644;2024-02-15T12:11:59;7.50;;;3.20;;
38629;SDS011;24384;51.988;4.644;2024-02-15T12:14:43;5.93;;;3.00;;
38629;SDS011;24384;51.988;4.644;2024-02-15T12:17:27;6.95;;;3.92;;
38629;SDS011;24384;51.988;4.644;2024-02-15T12:20:11;7.95;;;3.78;;
38629;SDS011;24384;51.988;4.644;2024-02-15T12:22:48;8.68;;;4.50;;
38629;SDS011;24384;51.988;4.644;2024-02-15T12:25:15;7.30;;;3.15;;
38629;SDS011;24384;51.988;4.644;2024-02-15T12:27:45;7.38;;;3.20;;
38629;SDS011;24384;51.988;4.644;2024-02-15T12:30:15;7.55;;;3.30;;
38629;SDS011;24384;51.988;4.644;2024-02-15T12:32:45;8.40;;;3.30;;
38629;SDS011;24384;51.988;4.644;2024-02-15T12:35:13;7.15;;;2.92;;
38629;SDS011;24384;51.988;4.644;2024-02-15T12:38:05;8.65;;;2.95;;
38629;SDS011;24384;51.988;4.644;2024-02-15T12:40:39;8.80;;;2.63;;
38629;SDS011;24384;51.988;4.644;2024-02-15T12:43:18;5.32;;;3.38;;
38629;SDS011;24384;51.988;4.644;2024-02-15T12:45:56;7.15;;;2.85;;
38629;SDS011;24384;51.988;4.644;2024-02-15T12:48:52;11.90;;;3.88;;
38629;SDS011;24384;51.988;4.644;2024-02-15T12:51:50;8.73;;;3.17;;
38629;SDS011;24384;51.988;4.644;2024-02-15T12:54:25;10.35;;;3.20;;
38629;SDS011;24384;51.988;4.644;2024-02-15T12:57:18;8.10;;;3.60;;
38629;SDS011;24384;51.988;4.644;2024-02-15T12:59:57;9.40;;;3.38;;
38629;SDS011;24384;51.988;4.644;2024-02-15T13:02:37;6.40;;;3.25;;
38629;SDS011;24384;51.988;4.644;2024-02-15T13:05:06;7.15;;;2.72;;
38629;SDS011;24384;51.988;4.644;2024-02-15T13:07:51;6.57;;;2.83;;
38629;SDS011;24384;51.988;4.644;2024-02-15T13:10:35;8.55;;;3.03;;
38629;SDS011;24384;51.988;4.644;2024-02-15T13:13:15;6.93;;;2.65;;
38629;SDS011;24384;51.988;4.644;2024-02-15T13:15:47;5.32;;;3.20;;
38629;SDS011;24384;51.988;4.644;2024-02-15T13:18:25;13.55;;;3.75;;
38629;SDS011;24384;51.988;4.644;2024-02-15T13:21:22;6.05;;;2.65;;
38629;SDS011;24384;51.988;4.644;2024-02-15T13:23:59;7.68;;;3.20;;
38629;SDS011;24384;51.988;4.644;2024-02-15T13:26:39;6.38;;;2.92;;
38629;SDS011;24384;51.988;4.644;2024-02-15T13:29:35;6.38;;;3.20;;
38629;SDS011;24384;51.988;4.644;2024-02-15T13:32:14;4.88;;;2.55;;
38629;SDS011;24384;51.988;4.644;2024-02-15T13:34:47;7.10;;;3.03;;
38629;SDS011;24384;51.988;4.644;2024-02-15T13:37:47;7.57;;;2.90;;
38629;SDS011;24384;51.988;4.644;2024-02-15T13:40:36;4.85;;;2.50;;
38629;SDS011;24384;51.988;4.644;2024-02-15T13:43:40;9.55;;;3.65;;
38629;SDS011;24384;51.988;4.644;2024-02-15T13:46:35;9.45;;;3.78;;
38629;SDS011;24384;51.988;4.644;2024-02-15T13:49:29;9.52;;;3.60;;
38629;SDS011;24384;51.988;4.644;2024-02-15T13:52:07;6.65;;;2.88;;
38629;SDS011;24384;51.988;4.644;2024-02-15T13:54:45;7.00;;;3.13;;
38629;SDS011;24384;51.988;4.644;2024-02-15T13:57:13;7.35;;;2.95;;
38629;SDS011;24384;51.988;4.644;2024-02-15T13:59:59;7.75;;;3.00;;
38629;SDS011;24384;51.988;4.644;2024-02-15T14:02:25;7.70;;;3.10;;
38629;SDS011;24384;51.988;4.644;2024-02-15T14:05:06;7.07;;;3.00;;
38629;SDS011;24384;51.988;4.644;2024-02-15T14:07:37;8.98;;;3.05;;
38629;SDS011;24384;51.988;4.644;2024-02-15T14:10:21;11.40;;;3.22;;
38629;SDS011;24384;51.988;4.644;2024-02-15T14:12:49;6.32;;;2.47;;
38629;SDS011;24384;51.988;4.644;2024-02-15T14:15:38;5.10;;;2.28;;
38629;SDS011;24384;51.988;4.644;2024-02-15T14:18:28;7.43;;;3.65;;
38629;SDS011;24384;51.988;4.644;2024-02-15T14:21:05;7.28;;;2.50;;
38629;SDS011;24384;51.988;4.644;2024-02-15T14:23:42;5.63;;;2.50;;
38629;SDS011;24384;51.988;4.644;2024-02-15T14:26:34;12.30;;;2.67;;
38629;SDS011;24384;51.988;4.644;2024-02-15T14:29:10;11.77;;;2.95;;
38629;SDS011;24384;51.988;4.644;2024-02-15T14:31:50;8.20;;;2.95;;
38629;SDS011;24384;51.988;4.644;2024-02-15T14:34:38;6.90;;;2.80;;
38629;SDS011;24384;51.988;4.644;2024-02-15T14:37:06;9.27;;;3.30;;
38629;SDS011;24384;51.988;4.644;2024-02-15T14:39:31;5.78;;;2.42;;
38629;SDS011;24384;51.988;4.644;2024-02-15T14:41:56;7.97;;;3.17;;
38629;SDS011;24384;51.988;4.644;2024-02-15T14:44:24;9.13;;;2.70;;
38629;SDS011;24384;51.988;4.644;2024-02-15T14:46:51;11.50;;;3.17;;
38629;SDS011;24384;51.988;4.644;2024-02-15T14:49:19;8.77;;;4.18;;
38629;SDS011;24384;51.988;4.644;2024-02-15T14:51:47;10.38;;;2.70;;
38629;SDS011;24384;51.988;4.644;2024-02-15T14:54:14;8.63;;;2.55;;
38629;SDS011;24384;51.988;4.644;2024-02-15T14:56:39;8.18;;;3.00;;
38629;SDS011;24384;51.988;4.644;2024-02-15T14:59:05;6.80;;;2.78;;
38629;SDS011;24384;51.988;4.644;2024-02-15T15:01:33;9.48;;;2.58;;
38629;SDS011;24384;51.988;4.644;2024-02-15T15:04:06;9.80;;;2.88;;
38629;SDS011;24384;51.988;4.644;2024-02-15T15:06:44;6.15;;;2.53;;
38629;SDS011;24384;51.988;4.644;2024-02-15T15:09:31;11.32;;;3.78;;